Portada
METAR-TAF:

METAR-TAF

Aeroports :

Fort-de-France, Martinica

latitud: 14-36N, longitud: 061-00W, altitud: 5 m

Observació

L'informe es va fer fa 11 minuts, a les 09:30 UTC
Vent 4 kt del Est
Temperatura 26°C
Humitat 89%
Pressió 1014 hPa
Visibilitat 10 km o més
Escasses núvols a una alçada de 4900 ft

METAR: TFFF 270930Z AUTO 10004KT 9999 FEW049 26/24 Q1014

Hora: 05:41 (09:41 UTC)

Pronòstic

L'informe es va fer fa 11 hores i 41 minuts, a les 22:00 UTC
Pronòstic vàlid del 27 a les 00 UTC al 27 a les 24 UTC
Vent 10 kt del Est/Sud-Est
Visibilitat 10 km o més
Núvols disperses a una alçada de 3000 ft
Probabilitat 40% :
Temporalment
l' 27 a les 00 UTC al 27 a les 10 UTC
Vent 3 kt amb direcció variable
Probabilitat 30% :
Temporalment
l' 27 a les 15 UTC al 27 a les 21 UTC
Visibilitat: 3000 m
Cel ennuvolat a una alçada de 2000 ft, Cumulus congestus.
xàfecs de pluja

TAF: TFFF 262200Z 2700/2724 12010KT 9999 SCT030 PROB40 TEMPO 2700/2710 VRB03KT PROB30 TEMPO 2715/2721 3000 SHRA BKN020TCU

Observacions i pronòstics meteorològics de més de 4000 aeroports (METAR i TAF).

Les estacions disponibles són els punts grocs i vermells al mapa.

Posi el ratolí al punt desitjat per veure el nom de l'estació.

Feu clic per veure les observacions i els pronòstics meteorològics.

Per canviar el mapa: feu clic els botons verds amb una creu de color negre per apropar; al botó verd amb un guió per allunyar la imatge; o en les fletxes verdes per a mapes adjacents.


METAR-TAF: